Time;durP1;ratioP1;P1;durP2;ratioP2;P2;SDS_P1;SDS_P2;PMS_P1;PMS_P2;Temp;Humidity;BMP_temperature;BMP_pressure;BME280_temperature;BME280_humidity;BME280_pressure;Samples;Min_cycle;Max_cycle;Signal;HPM_P1;HPM_P2
2022/09/14 00:00:55;;;;;;;4.68;1.98;;;18.30;99.90;;;;;;5072158;28;20193;-70
2022/09/14 00:03:20;;;;;;;5.85;2.10;;;18.30;99.90;;;;;;5071999;28;20658;-70
2022/09/14 00:05:46;;;;;;;4.95;1.98;;;18.30;99.90;;;;;;5074418;28;20713;-70
2022/09/14 00:08:12;;;;;;;7.20;2.40;;;18.30;99.90;;;;;;5092330;28;20254;-70
2022/09/14 00:10:43;;;;;;;5.70;2.00;;;18.20;99.90;;;;;;5092444;28;20257;-69
2022/09/14 00:13:10;;;;;;;2.92;1.95;;;18.20;99.90;;;;;;5094062;28;20232;-70
2022/09/14 00:15:37;;;;;;;5.85;2.10;;;18.20;99.90;;;;;;5093737;28;20222;-70
2022/09/14 00:18:04;;;;;;;7.05;2.17;;;18.20;99.90;;;;;;5092160;28;20200;-70
2022/09/14 00:20:30;;;;;;;6.80;2.28;;;18.10;99.90;;;;;;5092373;28;20208;-70
2022/09/14 00:22:56;;;;;;;3.75;2.00;;;18.10;99.90;;;;;;5094229;28;20668;-70
2022/09/14 00:25:22;;;;;;;4.30;2.22;;;18.10;99.90;;;;;;5093716;28;20173;-71
2022/09/14 00:27:48;;;;;;;5.30;1.98;;;18.10;99.90;;;;;;5084638;28;20215;-71
2022/09/14 00:30:14;;;;;;;8.32;2.60;;;18.00;99.90;;;;;;5073237;28;20263;-71
2022/09/14 00:32:40;;;;;;;5.25;2.40;;;18.00;99.90;;;;;;5072920;28;20173;-71
2022/09/14 00:35:06;;;;;;;5.20;2.35;;;18.00;99.90;;;;;;5073803;28;20257;-71
2022/09/14 00:37:31;;;;;;;4.47;2.17;;;18.00;99.90;;;;;;5090743;28;20185;-71
2022/09/14 00:39:57;;;;;;;5.00;2.45;;;17.90;99.90;;;;;;5096237;28;20204;-71
2022/09/14 00:42:23;;;;;;;4.80;2.20;;;17.90;99.90;;;;;;5096617;28;20173;-71
2022/09/14 00:44:49;;;;;;;2.17;1.85;;;17.90;99.90;;;;;;5097376;28;20216;-71
2022/09/14 00:47:16;;;;;;;4.45;2.20;;;17.90;99.90;;;;;;5097216;28;20188;-72
2022/09/14 00:49:42;;;;;;;7.63;2.10;;;17.80;99.90;;;;;;5095604;28;20212;-71
2022/09/14 00:52:28;;;;;;;5.28;2.10;;;17.80;99.90;;;;;;5097474;28;20157;-70
2022/09/14 00:55:00;;;;;;;6.85;2.25;;;17.80;99.90;;;;;;5095556;28;20195;-71
2022/09/14 00:57:28;;;;;;;6.45;2.13;;;17.80;99.90;;;;;;5091560;28;20227;-74
2022/09/14 00:59:55;;;;;;;3.35;2.08;;;17.80;99.90;;;;;;5076416;28;20253;-71
2022/09/14 01:02:24;;;;;;;4.40;2.28;;;17.80;99.90;;;;;;5075051;28;20189;-71
2022/09/14 01:04:50;;;;;;;5.78;1.98;;;17.80;99.90;;;;;;5076418;28;20327;-71
2022/09/14 01:07:31;;;;;;;4.90;2.30;;;17.80;99.90;;;;;;5091298;28;20184;-72
2022/09/14 01:10:39;;;;;;;4.30;2.17;;;17.80;99.90;;;;;;5095181;28;20200;-71
2022/09/14 01:13:21;;;;;;;5.93;2.38;;;17.80;99.90;;;;;;5095770;28;20180;-71
2022/09/14 01:16:10;;;;;;;5.05;2.10;;;17.70;99.90;;;;;;5096276;28;20157;-71
2022/09/14 01:18:42;;;;;;;7.35;2.28;;;17.70;99.90;;;;;;5096009;28;20279;-72
2022/09/14 01:21:17;;;;;;;4.75;2.13;;;17.70;99.90;;;;;;5096864;28;20566;-71
2022/09/14 01:24:22;;;;;;;6.03;2.58;;;17.70;99.90;;;;;;5096775;28;20153;-71
2022/09/14 01:26:50;;;;;;;4.72;2.10;;;17.60;99.90;;;;;;5088251;28;20184;-71
2022/09/14 01:30:06;;;;;;;5.60;2.50;;;17.60;99.90;;;;;;5075692;28;20203;-71
2022/09/14 01:32:42;;;;;;;4.15;2.17;;;17.60;99.90;;;;;;5064323;28;20277;-71
2022/09/14 01:35:19;;;;;;;6.03;2.13;;;17.50;99.90;;;;;;5056870;28;20162;-71
2022/09/14 01:37:57;;;;;;;5.57;2.30;;;17.50;99.90;;;;;;5093743;28;20284;-71
2022/09/14 01:40:31;;;;;;;9.23;2.67;;;17.50;99.90;;;;;;5096101;28;20196;-71
2022/09/14 01:43:16;;;;;;;8.35;2.40;;;17.50;99.90;;;;;;5096039;28;20201;-71
2022/09/14 01:46:08;;;;;;;5.88;2.20;;;17.50;99.90;;;;;;5095753;28;20167;-71
2022/09/14 01:48:38;;;;;;;7.57;2.58;;;17.50;99.90;;;;;;5095222;28;20200;-71
2022/09/14 01:51:10;;;;;;;5.32;2.58;;;17.50;99.90;;;;;;5093820;28;20235;-71
2022/09/14 01:53:41;;;;;;;9.30;2.47;;;17.40;99.90;;;;;;5094274;28;20257;-71
2022/09/14 01:56:41;;;;;;;5.88;2.50;;;17.40;99.90;;;;;;5095647;28;20171;-71
2022/09/14 01:59:14;;;;;;;9.68;2.60;;;17.30;99.90;;;;;;5065036;28;20574;-71
2022/09/14 02:01:45;;;;;;;4.88;2.70;;;17.20;99.90;;;;;;5053855;28;20186;-71
2022/09/14 02:04:16;;;;;;;6.97;2.50;;;17.20;99.90;;;;;;5054888;28;20167;-71
2022/09/14 02:06:45;;;;;;;6.55;2.75;;;17.10;99.90;;;;;;5074812;28;20256;-71
2022/09/14 02:09:21;;;;;;;6.45;2.65;;;17.10;99.90;;;;;;5094974;28;20196;-71
2022/09/14 02:11:47;;;;;;;7.53;2.60;;;17.10;99.90;;;;;;5095391;28;20157;-71
2022/09/14 02:14:13;;;;;;;6.07;2.60;;;17.10;99.90;;;;;;5093811;28;20158;-71
2022/09/14 02:16:42;;;;;;;7.78;2.90;;;17.10;99.90;;;;;;5093648;28;20173;-71
2022/09/14 02:19:08;;;;;;;6.97;2.53;;;17.10;99.90;;;;;;5093383;28;20196;-71
2022/09/14 02:21:34;;;;;;;3.47;2.47;;;17.10;99.90;;;;;;5093676;28;20173;-71
2022/09/14 02:24:01;;;;;;;8.52;2.35;;;17.10;99.90;;;;;;5094974;28;20196;-71
2022/09/14 02:26:28;;;;;;;7.03;2.70;;;17.10;99.90;;;;;;5094800;28;20645;-71
2022/09/14 02:28:55;;;;;;;7.95;2.50;;;17.10;99.90;;;;;;5076586;28;20727;-71
2022/09/14 02:31:50;;;;;;;10.57;2.47;;;17.10;99.90;;;;;;5074293;28;20169;-71
2022/09/14 02:34:28;;;;;;;6.78;2.97;;;17.10;99.90;;;;;;5074255;28;20168;-71
2022/09/14 02:37:29;;;;;;;6.40;2.40;;;17.00;99.90;;;;;;5086133;28;20671;-72
2022/09/14 02:40:13;;;;;;;5.97;2.60;;;17.00;99.90;;;;;;5093965;28;20207;-72
2022/09/14 02:43:13;;;;;;;6.35;2.47;;;17.00;99.90;;;;;;5093218;28;20203;-71
2022/09/14 02:45:51;;;;;;;8.15;2.58;;;17.00;99.90;;;;;;5094485;28;20162;-71
2022/09/14 02:48:52;;;;;;;8.65;2.90;;;16.90;99.90;;;;;;5092763;28;20196;-71
2022/09/14 02:51:40;;;;;;;8.20;2.70;;;16.80;99.90;;;;;;5092515;28;20348;-71
2022/09/14 02:54:19;;;;;;;6.95;2.60;;;16.90;99.90;;;;;;5092946;28;20676;-71
2022/09/14 02:56:45;;;;;;;8.52;2.67;;;16.80;99.90;;;;;;5094283;28;20243;-71
2022/09/14 02:59:11;;;;;;;6.45;3.13;;;16.80;99.90;;;;;;5054031;28;20740;-72
2022/09/14 03:01:37;;;;;;;6.50;2.58;;;16.80;99.90;;;;;;5053454;28;20194;-71
2022/09/14 03:04:03;;;;;;;8.35;2.70;;;16.80;99.90;;;;;;5052503;28;20239;-72
2022/09/14 03:06:29;;;;;;;4.80;2.35;;;16.80;99.90;;;;;;5069999;28;20260;-72
2022/09/14 03:08:55;;;;;;;5.45;2.85;;;16.80;99.90;;;;;;5094014;28;20200;-72
2022/09/14 03:11:20;;;;;;;6.63;2.47;;;16.70;99.90;;;;;;5093941;28;20173;-71
2022/09/14 03:13:46;;;;;;;10.27;2.55;;;16.70;99.90;;;;;;5092751;28;20215;-71
2022/09/14 03:16:15;;;;;;;12.52;3.00;;;16.60;99.90;;;;;;5092541;28;20314;-72
2022/09/14 03:18:41;;;;;;;9.40;2.83;;;16.60;99.90;;;;;;5093677;28;20188;-72
2022/09/14 03:21:16;;;;;;;6.00;3.00;;;16.50;99.90;;;;;;5092758;28;20184;-72
2022/09/14 03:23:48;;;;;;;6.10;2.90;;;16.50;99.90;;;;;;5094215;28;20165;-72
2022/09/14 03:26:16;;;;;;;5.95;2.90;;;16.50;99.90;;;;;;5094036;28;20207;-72
2022/09/14 03:28:42;;;;;;;6.40;2.95;;;16.40;99.90;;;;;;5077580;28;20209;-72
2022/09/14 03:31:09;;;;;;;4.88;2.95;;;16.40;99.90;;;;;;5072096;28;20323;-74
2022/09/14 03:33:36;;;;;;;4.78;2.88;;;16.40;99.90;;;;;;5071937;28;20264;-72
2022/09/14 03:36:13;;;;;;;8.25;2.75;;;16.40;99.90;;;;;;5077954;28;20189;-72
2022/09/14 03:38:42;;;;;;;8.07;3.55;;;16.30;99.90;;;;;;5093906;28;20276;-71
2022/09/14 03:41:09;;;;;;;7.68;3.58;;;16.30;99.90;;;;;;5093607;28;20189;-71
2022/09/14 03:43:35;;;;;;;8.60;3.10;;;16.20;99.90;;;;;;5093508;28;20255;-71
2022/09/14 03:46:12;;;;;;;12.63;3.70;;;16.20;99.90;;;;;;5093757;28;20683;-72
2022/09/14 03:48:38;;;;;;;7.80;3.40;;;16.20;99.90;;;;;;5093552;28;20216;-71
2022/09/14 03:51:06;;;;;;;6.85;2.97;;;16.20;99.90;;;;;;5093651;28;20211;-72
2022/09/14 03:53:32;;;;;;;8.30;3.17;;;16.10;99.90;;;;;;5093544;28;20173;-72
2022/09/14 03:55:58;;;;;;;8.40;2.95;;;16.10;99.90;;;;;;5092264;28;20260;-72
2022/09/14 03:58:24;;;;;;;6.90;3.05;;;16.10;99.90;;;;;;5079784;28;20281;-73
2022/09/14 04:00:50;;;;;;;6.80;2.75;;;16.10;99.90;;;;;;5071910;28;20279;-72
2022/09/14 04:03:16;;;;;;;6.80;2.78;;;16.10;99.90;;;;;;5071657;28;20238;-71
2022/09/14 04:05:44;;;;;;;10.52;2.92;;;16.10;99.90;;;;;;5073468;28;20184;-71
2022/09/14 04:08:10;;;;;;;7.10;2.80;;;16.00;99.90;;;;;;5093814;28;20222;-72
2022/09/14 04:10:38;;;;;;;6.20;2.83;;;16.10;99.90;;;;;;5093688;28;20201;-71
2022/09/14 04:13:04;;;;;;;5.38;3.20;;;16.00;99.90;;;;;;5095035;28;20203;-71
2022/09/14 04:15:29;;;;;;;5.22;2.97;;;16.00;99.90;;;;;;5097039;28;20256;-73
2022/09/14 04:17:55;;;;;;;4.70;3.10;;;16.00;99.90;;;;;;5096902;28;20223;-71
2022/09/14 04:20:21;;;;;;;7.70;3.22;;;16.00;99.90;;;;;;5098009;28;20589;-72
2022/09/14 04:22:47;;;;;;;10.70;3.35;;;16.00;99.90;;;;;;5097300;28;20173;-72
2022/09/14 04:25:13;;;;;;;9.00;3.30;;;15.90;99.90;;;;;;5097436;28;20173;-71
2022/09/14 04:27:38;;;;;;;7.50;3.08;;;15.90;99.90;;;;;;5089596;28;20656;-71
2022/09/14 04:30:05;;;;;;;7.07;3.10;;;15.80;99.90;;;;;;5076825;28;20225;-71
2022/09/14 04:32:31;;;;;;;7.68;3.00;;;15.70;99.90;;;;;;5076841;28;20251;-71
2022/09/14 04:34:57;;;;;;;6.57;2.97;;;15.60;99.90;;;;;;5076410;28;20174;-72
2022/09/14 04:37:23;;;;;;;5.43;2.65;;;15.60;99.90;;;;;;5092367;28;20612;-72
2022/09/14 04:39:48;;;;;;;8.35;3.30;;;15.50;99.90;;;;;;5097637;28;20228;-71
2022/09/14 04:42:14;;;;;;;8.95;3.42;;;15.40;99.90;;;;;;5097021;28;20193;-71
2022/09/14 04:44:40;;;;;;;7.88;3.33;;;15.40;99.90;;;;;;5095217;28;20276;-71
2022/09/14 04:47:06;;;;;;;8.25;3.17;;;15.40;99.90;;;;;;5095458;28;20259;-71
2022/09/14 04:49:32;;;;;;;9.38;3.33;;;15.40;99.90;;;;;;5096531;28;20262;-71
2022/09/14 04:51:57;;;;;;;5.93;3.13;;;15.40;99.90;;;;;;5096679;28;20244;-70
2022/09/14 04:54:23;;;;;;;6.20;3.30;;;15.30;99.90;;;;;;5096692;28;20260;-71
2022/09/14 04:56:49;;;;;;;5.70;3.50;;;15.30;99.90;;;;;;5096255;28;20639;-71
2022/09/14 04:59:14;;;;;;;6.22;3.28;;;15.20;99.90;;;;;;5076220;28;20243;-71
2022/09/14 05:01:44;;;;;;;8.25;3.83;;;15.20;99.90;;;;;;5076166;28;20259;-71
2022/09/14 05:04:10;;;;;;;6.85;3.42;;;15.20;99.90;;;;;;5076062;28;20170;-71
2022/09/14 05:06:38;;;;;;;10.40;4.00;;;15.20;99.90;;;;;;5085346;28;20177;-71
2022/09/14 05:09:07;;;;;;;8.82;4.13;;;15.10;99.90;;;;;;5094756;28;20665;-71
2022/09/14 05:11:35;;;;;;;7.05;4.32;;;15.10;99.90;;;;;;5094894;28;20223;-71
2022/09/14 05:14:02;;;;;;;7.43;4.30;;;15.00;99.90;;;;;;5094964;28;20189;-71
2022/09/14 05:16:38;;;;;;;9.88;4.07;;;15.00;99.90;;;;;;5096022;28;20564;-71
2022/09/14 05:19:06;;;;;;;10.02;4.07;;;14.90;99.90;;;;;;5096226;28;20192;-71
2022/09/14 05:21:35;;;;;;;9.80;4.70;;;14.90;99.90;;;;;;5096258;28;20638;-71
2022/09/14 05:24:03;;;;;;;8.43;4.00;;;15.00;99.90;;;;;;5096048;28;20198;-71
2022/09/14 05:26:31;;;;;;;11.88;4.20;;;14.90;99.90;;;;;;5094681;28;20173;-72
2022/09/14 05:28:59;;;;;;;9.30;4.15;;;15.00;99.90;;;;;;5077459;28;20197;-71
2022/09/14 05:31:26;;;;;;;7.18;4.38;;;14.90;99.90;;;;;;5075198;28;20213;-71
2022/09/14 05:33:52;;;;;;;6.25;3.95;;;14.90;99.90;;;;;;5074123;28;20184;-71
2022/09/14 05:36:18;;;;;;;7.53;4.68;;;14.90;99.90;;;;;;5082324;28;20177;-71
2022/09/14 05:38:45;;;;;;;9.30;4.60;;;14.80;99.90;;;;;;5095736;28;20208;-70
2022/09/14 05:41:12;;;;;;;8.75;4.35;;;14.80;99.90;;;;;;5095671;28;20185;-71
2022/09/14 05:43:38;;;;;;;12.85;4.68;;;14.80;99.90;;;;;;5096121;28;20173;-71
2022/09/14 05:46:06;;;;;;;5.22;4.10;;;14.80;99.90;;;;;;5096009;28;20180;-69
2022/09/14 05:48:33;;;;;;;7.82;4.55;;;14.80;99.90;;;;;;5093939;28;20231;-69
2022/09/14 05:51:12;;;;;;;8.52;4.28;;;14.80;99.90;;;;;;5095363;28;20189;-69
2022/09/14 05:53:38;;;;;;;12.57;5.40;;;14.80;99.90;;;;;;5095581;28;20149;-69
2022/09/14 05:56:12;;;;;;;11.45;4.88;;;14.80;99.90;;;;;;5094059;28;20522;-69
2022/09/14 05:58:40;;;;;;;10.95;4.43;;;14.80;99.90;;;;;;5079658;28;20196;-69
2022/09/14 06:01:20;;;;;;;12.75;5.28;;;14.80;99.90;;;;;;5074889;28;20216;-69
2022/09/14 06:03:47;;;;;;;12.15;5.00;;;14.70;99.90;;;;;;5073596;28;20264;-69
2022/09/14 06:06:15;;;;;;;9.23;4.82;;;14.70;99.90;;;;;;5080730;28;20204;-69
2022/09/14 06:08:42;;;;;;;7.28;5.00;;;14.70;99.90;;;;;;5093963;28;20229;-69
2022/09/14 06:11:13;;;;;;;9.00;5.30;;;14.70;99.90;;;;;;5093836;28;20200;-69
2022/09/14 06:13:40;;;;;;;15.85;5.70;;;14.70;99.90;;;;;;5095238;28;20198;-69
2022/09/14 06:16:11;;;;;;;11.95;5.57;;;14.70;99.90;;;;;;5094809;28;20178;-69
2022/09/14 06:18:39;;;;;;;9.18;5.07;;;14.70;99.90;;;;;;5094869;28;20237;-69
2022/09/14 06:21:05;;;;;;;14.00;5.10;;;14.60;99.90;;;;;;5094871;28;20668;-69
2022/09/14 06:23:31;;;;;;;9.40;4.97;;;14.70;99.90;;;;;;5094965;28;20185;-69
2022/09/14 06:25:59;;;;;;;10.77;6.03;;;14.70;99.90;;;;;;5093641;28;20183;-69
2022/09/14 06:28:26;;;;;;;7.60;5.30;;;14.70;99.90;;;;;;5081154;28;20285;-69
2022/09/14 06:30:52;;;;;;;12.45;5.35;;;14.80;99.90;;;;;;5074936;28;20194;-69
2022/09/14 06:33:19;;;;;;;17.80;5.35;;;14.80;99.90;;;;;;5074566;28;20638;-69
2022/09/14 06:36:08;;;;;;;9.32;4.93;;;14.80;99.90;;;;;;5075926;28;20174;-69
2022/09/14 06:38:34;;;;;;;11.27;5.95;;;14.70;99.90;;;;;;5095226;28;20192;-69
2022/09/14 06:41:03;;;;;;;12.60;5.28;;;14.70;99.90;;;;;;5094465;28;20249;-69
2022/09/14 06:43:31;;;;;;;10.82;5.72;;;14.70;99.90;;;;;;5094606;28;20204;-69
2022/09/14 06:46:03;;;;;;;11.02;6.55;;;14.70;99.90;;;;;;5094449;28;20203;-69
2022/09/14 06:48:31;;;;;;;12.45;5.80;;;14.70;99.90;;;;;;5094664;28;20276;-69
2022/09/14 06:50:57;;;;;;;8.75;5.97;;;14.80;99.90;;;;;;5094953;28;20207;-69
2022/09/14 06:53:23;;;;;;;9.23;5.75;;;14.70;99.90;;;;;;5094646;28;20255;-69
2022/09/14 06:55:49;;;;;;;10.52;5.70;;;14.70;99.90;;;;;;5093246;28;20169;-69
2022/09/14 06:58:15;;;;;;;9.68;5.43;;;14.70;99.90;;;;;;5081966;28;20209;-70
2022/09/14 07:00:41;;;;;;;13.98;5.63;;;14.70;99.90;;;;;;5074278;28;20161;-69
2022/09/14 07:03:07;;;;;;;14.10;5.93;;;14.70;99.90;;;;;;5074004;28;20228;-69
2022/09/14 07:05:33;;;;;;;12.07;4.70;;;14.60;99.90;;;;;;5074129;28;20169;-70
2022/09/14 07:07:58;;;;;;;7.63;4.85;;;14.50;99.90;;;;;;5094303;28;20662;-69
2022/09/14 07:10:27;;;;;;;11.90;5.07;;;14.40;99.90;;;;;;5094137;28;20703;-69
2022/09/14 07:12:57;;;;;;;10.23;5.10;;;14.40;99.90;;;;;;5094122;28;20173;-69
2022/09/14 07:15:23;;;;;;;12.75;5.13;;;14.40;99.90;;;;;;5093867;28;20214;-70
2022/09/14 07:17:49;;;;;;;11.20;5.32;;;14.30;99.90;;;;;;5093901;28;20236;-70
2022/09/14 07:20:15;;;;;;;10.98;5.10;;;14.30;99.90;;;;;;5093768;28;20177;-70
2022/09/14 07:22:41;;;;;;;8.85;5.00;;;14.30;99.90;;;;;;5094158;28;20180;-69
2022/09/14 07:25:08;;;;;;;9.15;4.57;;;14.30;99.90;;;;;;5093980;28;20242;-70
2022/09/14 07:27:33;;;;;;;10.10;5.53;;;14.30;99.90;;;;;;5087246;28;20174;-70
2022/09/14 07:29:59;;;;;;;13.48;5.53;;;14.30;99.90;;;;;;5073604;28;20688;-69
2022/09/14 07:32:25;;;;;;;10.13;5.55;;;14.30;99.90;;;;;;5073673;28;20540;-70
2022/09/14 07:34:50;;;;;;;12.88;5.55;;;14.30;99.90;;;;;;5073649;28;20212;-70
2022/09/14 07:37:16;;;;;;;15.23;5.32;;;14.40;99.90;;;;;;5074321;28;20208;-70
2022/09/14 07:39:42;;;;;;;14.85;5.68;;;14.40;99.90;;;;;;5073527;28;20205;-70
2022/09/14 07:42:08;;;;;;;10.15;5.55;;;14.40;99.90;;;;;;5073922;28;20175;-70
2022/09/14 07:44:33;;;;;;;9.40;5.47;;;14.40;99.90;;;;;;5073791;28;20177;-70
2022/09/14 07:46:59;;;;;;;8.95;5.82;;;14.50;99.90;;;;;;5073508;28;20178;-70
2022/09/14 07:49:25;;;;;;;16.00;7.35;;;14.50;99.90;;;;;;5075945;28;22251;-70
2022/09/14 07:51:51;;;;;;;13.13;6.38;;;14.50;99.90;;;;;;5077270;28;20173;-70
2022/09/14 07:54:18;;;;;;;14.27;7.32;;;14.50;99.90;;;;;;5079059;28;20664;-70
2022/09/14 07:56:44;;;;;;;9.02;6.57;;;14.50;99.90;;;;;;5076726;28;20186;-70
2022/09/14 07:59:12;;;;;;;11.57;7.10;;;14.50;99.90;;;;;;5057861;28;20190;-70
2022/09/14 08:01:38;;;;;;;17.27;7.82;;;14.60;99.90;;;;;;5060273;28;20182;-70
2022/09/14 08:04:04;;;;;;;15.15;7.78;;;14.60;99.90;;;;;;5077236;28;20185;-70
2022/09/14 08:06:30;;;;;;;21.75;7.30;;;14.60;99.90;;;;;;5084481;28;20181;-70
2022/09/14 08:08:56;;;;;;;19.45;7.53;;;14.60;99.90;;;;;;5096439;28;20189;-70
2022/09/14 08:11:28;;;;;;;12.65;7.93;;;14.60;99.90;;;;;;5097686;28;20735;-70
2022/09/14 08:13:59;;;;;;;15.82;8.07;;;14.60;99.90;;;;;;5097810;28;20176;-70
2022/09/14 08:16:27;;;;;;;12.68;7.55;;;14.70;99.90;;;;;;5097399;28;20253;-70
2022/09/14 08:18:58;;;;;;;17.00;8.15;;;14.70;99.90;;;;;;5097164;28;20201;-70
2022/09/14 08:21:26;;;;;;;11.27;6.28;;;14.70;99.90;;;;;;5095988;28;20185;-70
2022/09/14 08:23:52;;;;;;;10.60;6.55;;;14.70;99.90;;;;;;5097385;28;20644;-70
2022/09/14 08:26:20;;;;;;;11.85;6.35;;;14.70;99.90;;;;;;5097350;28;20169;-70
2022/09/14 08:28:47;;;;;;;11.00;6.55;;;14.60;99.90;;;;;;5080222;28;20202;-71
2022/09/14 08:31:21;;;;;;;12.25;6.85;;;14.60;99.90;;;;;;5076767;28;20665;-71
2022/09/14 08:33:49;;;;;;;10.80;6.28;;;14.60;99.90;;;;;;5055339;28;20178;-71
2022/09/14 08:36:18;;;;;;;13.68;6.75;;;14.60;99.90;;;;;;5056719;28;20231;-70
2022/09/14 08:38:44;;;;;;;14.73;7.35;;;14.60;99.90;;;;;;5055432;28;20194;-72
2022/09/14 08:41:31;;;;;;;10.07;6.95;;;14.70;99.90;;;;;;5054313;28;20197;-72
2022/09/14 08:44:08;;;;;;;8.25;6.28;;;14.60;99.90;;;;;;5055237;28;20167;-71
2022/09/14 08:46:44;;;;;;;17.15;7.15;;;14.60;99.90;;;;;;5054047;28;20670;-72
2022/09/14 08:49:37;;;;;;;15.70;6.90;;;14.60;99.90;;;;;;5054797;28;20803;-72
2022/09/14 08:52:04;;;;;;;11.90;6.82;;;14.50;99.90;;;;;;5053914;28;20678;-72
2022/09/14 08:54:32;;;;;;;16.10;6.78;;;14.50;99.90;;;;;;5053709;28;20175;-72
2022/09/14 08:57:29;;;;;;;6.55;5.63;;;14.50;99.90;;;;;;5055248;28;20170;-72
2022/09/14 09:00:12;;;;;;;7.40;3.80;;;14.40;99.90;;;;;;5074194;28;20200;-72
2022/09/14 09:03:05;;;;;;;7.13;3.53;;;14.30;99.90;;;;;;5073612;28;20235;-72
2022/09/14 09:05:48;;;;;;;5.35;3.60;;;14.20;99.90;;;;;;5073324;28;20194;-71
2022/09/14 09:08:17;;;;;;;7.40;4.00;;;14.10;99.90;;;;;;5054895;28;20248;-71
2022/09/14 09:10:43;;;;;;;5.13;3.50;;;13.90;99.90;;;;;;5054842;28;20659;-71
2022/09/14 09:13:17;;;;;;;7.22;4.20;;;13.90;99.90;;;;;;5054637;28;20175;-72
2022/09/14 09:15:56;;;;;;;9.18;4.63;;;13.90;99.90;;;;;;5053218;28;20166;-72
2022/09/14 09:18:38;;;;;;;12.48;5.05;;;13.90;99.90;;;;;;5054933;28;20700;-72
2022/09/14 09:21:21;;;;;;;11.32;4.90;;;13.90;99.90;;;;;;5053371;28;20257;-72
2022/09/14 09:23:47;;;;;;;7.60;4.90;;;13.90;99.90;;;;;;5053365;28;20166;-72
2022/09/14 09:26:29;;;;;;;9.10;4.97;;;14.00;99.90;;;;;;5053078;28;20178;-72
2022/09/14 09:29:01;;;;;;;11.63;5.18;;;13.90;99.90;;;;;;5072081;28;20205;-71
2022/09/14 09:31:27;;;;;;;10.98;5.15;;;13.90;99.90;;;;;;5072883;28;20206;-72
2022/09/14 09:33:52;;;;;;;10.23;5.32;;;13.80;99.90;;;;;;5072850;28;20176;-72
2022/09/14 09:36:18;;;;;;;9.82;5.47;;;13.90;99.90;;;;;;5080974;28;20653;-72
2022/09/14 09:38:44;;;;;;;11.13;5.50;;;13.90;99.90;;;;;;5093181;28;20193;-72
2022/09/14 09:41:20;;;;;;;8.73;5.05;;;13.90;99.90;;;;;;5051259;28;1258980;-72
2022/09/14 09:44:02;;;;;;;11.25;4.80;;;13.90;99.90;;;;;;5095474;28;20697;-72
2022/09/14 09:46:31;;;;;;;6.50;4.05;;;13.90;99.90;;;;;;5095206;28;20207;-71
2022/09/14 09:48:58;;;;;;;9.68;4.60;;;13.80;99.90;;;;;;5093754;28;20193;-72
2022/09/14 09:51:25;;;;;;;11.98;4.97;;;13.80;99.90;;;;;;5095070;28;20270;-72
2022/09/14 09:54:08;;;;;;;10.15;4.70;;;13.80;99.90;;;;;;5093972;28;20222;-71
2022/09/14 09:56:57;;;;;;;9.63;4.82;;;13.80;99.90;;;;;;5093942;28;20520;-72
2022/09/14 09:59:31;;;;;;;9.77;4.75;;;13.80;99.90;;;;;;5053685;28;20201;-72
2022/09/14 10:02:16;;;;;;;6.28;4.35;;;13.90;99.90;;;;;;5054865;28;20174;-72
2022/09/14 10:05:00;;;;;;;9.52;4.15;;;13.90;99.90;;;;;;5053469;28;20178;-72
2022/09/14 10:07:28;;;;;;;7.25;3.95;;;13.80;99.90;;;;;;5086599;28;20177;-72
2022/09/14 10:10:00;;;;;;;7.88;4.20;;;13.90;99.90;;;;;;5094619;28;20203;-72
2022/09/14 10:12:26;;;;;;;5.35;3.95;;;13.80;99.90;;;;;;5094659;28;20181;-72
2022/09/14 10:15:16;;;;;;;7.40;4.75;;;13.80;99.90;;;;;;5095051;28;20181;-72
2022/09/14 10:18:00;;;;;;;11.18;4.63;;;13.90;99.90;;;;;;5093562;28;20204;-72
2022/09/14 10:20:26;;;;;;;9.82;5.43;;;13.90;99.90;;;;;;5094545;28;20179;-72
2022/09/14 10:22:52;;;;;;;8.45;4.15;;;13.90;99.90;;;;;;5093399;28;20184;-72
2022/09/14 10:25:18;;;;;;;8.55;4.63;;;13.90;99.90;;;;;;5094651;28;20521;-72
2022/09/14 10:27:53;;;;;;;7.03;4.20;;;13.90;99.90;;;;;;5086472;28;20198;-72
2022/09/14 10:30:19;;;;;;;14.32;4.72;;;13.90;99.90;;;;;;5072859;28;20216;-72
2022/09/14 10:32:53;;;;;;;7.03;5.03;;;13.90;99.90;;;;;;5072910;28;20197;-72
2022/09/14 10:35:22;;;;;;;6.18;4.80;;;13.90;99.90;;;;;;5073439;28;20164;-72
2022/09/14 10:37:57;;;;;;;7.68;4.78;;;13.90;99.90;;;;;;5091412;28;20292;-73
2022/09/14 10:40:35;;;;;;;11.60;4.80;;;13.90;99.90;;;;;;5094374;28;20188;-72
2022/09/14 10:43:37;;;;;;;5.72;4.43;;;14.00;99.90;;;;;;5093204;28;20246;-72
2022/09/14 10:46:06;;;;;;;5.45;4.72;;;14.00;99.90;;;;;;5085233;28;20268;-72
2022/09/14 10:48:44;;;;;;;7.15;4.80;;;14.00;99.90;;;;;;5093138;28;20224;-72
2022/09/14 10:51:31;;;;;;;6.78;4.95;;;14.00;99.90;;;;;;5092686;28;20240;-72
2022/09/14 10:54:25;;;;;;;6.25;4.90;;;14.10;99.90;;;;;;5094115;28;20157;-72
2022/09/14 10:57:06;;;;;;;10.10;5.85;;;14.00;99.90;;;;;;5091867;28;20541;-72
2022/09/14 10:59:52;;;;;;;10.85;5.55;;;14.00;99.90;;;;;;5072478;28;20193;-71
2022/09/14 11:02:46;;;;;;;8.82;5.10;;;14.00;99.90;;;;;;5073418;28;20329;-72
2022/09/14 11:05:17;;;;;;;10.13;5.40;;;14.00;99.90;;;;;;5072361;28;20162;-72
2022/09/14 11:08:10;;;;;;;10.43;5.35;;;13.90;99.90;;;;;;5090820;28;20196;-72
2022/09/14 11:11:08;;;;;;;6.45;4.25;;;13.90;99.90;;;;;;5092632;28;20665;-72
2022/09/14 11:13:54;;;;;;;5.88;4.50;;;13.90;99.90;;;;;;5092568;28;20169;-72
2022/09/14 11:16:47;;;;;;;6.57;4.15;;;13.90;99.90;;;;;;5093621;28;20520;-72
2022/09/14 11:19:42;;;;;;;6.45;4.20;;;13.90;99.90;;;;;;5093437;28;20192;-72
2022/09/14 11:22:08;;;;;;;9.27;4.65;;;13.90;99.90;;;;;;5093655;28;20161;-72
2022/09/14 11:24:59;;;;;;;11.30;4.20;;;14.00;99.90;;;;;;5092525;28;20181;-72
2022/09/14 11:27:34;;;;;;;7.60;3.70;;;14.00;99.90;;;;;;5088425;28;20243;-72
2022/09/14 11:30:03;;;;;;;7.78;4.00;;;14.10;99.90;;;;;;5073382;28;20197;-72
2022/09/14 11:32:39;;;;;;;6.03;3.40;;;14.10;99.90;;;;;;5073236;28;20189;-72
2022/09/14 11:35:14;;;;;;;5.93;3.63;;;14.10;99.90;;;;;;5073456;28;20153;-72
2022/09/14 11:38:01;;;;;;;6.07;4.00;;;14.20;99.90;;;;;;5089988;28;20690;-72
2022/09/14 11:40:33;;;;;;;5.93;3.80;;;14.20;99.90;;;;;;5093550;28;20668;-72
2022/09/14 11:43:21;;;;;;;3.83;3.40;;;14.20;99.90;;;;;;5092357;28;20194;-72
2022/09/14 11:46:08;;;;;;;6.00;4.18;;;14.20;99.90;;;;;;5093689;28;20158;-72
2022/09/14 11:48:44;;;;;;;6.78;4.47;;;14.20;99.90;;;;;;5092178;28;20199;-71
2022/09/14 11:51:48;;;;;;;4.88;3.92;;;14.20;99.90;;;;;;5092040;28;20192;-72
2022/09/14 11:54:19;;;;;;;7.10;4.25;;;14.30;99.90;;;;;;5093373;28;20184;-71
2022/09/14 11:56:55;;;;;;;5.60;3.85;;;14.30;99.90;;;;;;5093412;28;20180;-71
2022/09/14 11:59:49;;;;;;;7.32;4.03;;;14.30;99.90;;;;;;5051886;28;20233;-71
2022/09/14 12:02:26;;;;;;;7.75;3.92;;;14.30;99.90;;;;;;5051699;28;20188;-72
2022/09/14 12:05:08;;;;;;;7.63;3.88;;;14.30;99.90;;;;;;5052883;28;20170;-71
2022/09/14 12:07:58;;;;;;;6.45;3.75;;;14.30;99.90;;;;;;5086818;28;20226;-71
2022/09/14 12:10:25;;;;;;;5.88;3.78;;;14.30;99.90;;;;;;5082295;28;20329;-72
2022/09/14 12:13:16;;;;;;;4.55;3.63;;;14.30;99.90;;;;;;5091987;28;20223;-72
2022/09/14 12:15:42;;;;;;;5.65;3.90;;;14.40;99.90;;;;;;5091992;28;20219;-71
2022/09/14 12:18:08;;;;;;;10.85;4.03;;;14.40;99.90;;;;;;5093220;28;20194;-71
2022/09/14 12:20:36;;;;;;;6.32;3.88;;;14.40;99.90;;;;;;5093053;28;20181;-71
2022/09/14 12:23:14;;;;;;;6.97;4.57;;;14.40;99.90;;;;;;5093195;28;20173;-71
2022/09/14 12:26:12;;;;;;;6.68;4.03;;;14.20;99.90;;;;;;5093080;28;20177;-71
2022/09/14 12:28:39;;;;;;;5.25;3.88;;;14.10;99.90;;;;;;5075922;28;20213;-72
2022/09/14 12:31:05;;;;;;;4.05;3.65;;;14.20;99.90;;;;;;5072822;28;20660;-72
2022/09/14 12:33:31;;;;;;;5.18;3.88;;;14.20;99.90;;;;;;5073377;28;20209;-72
2022/09/14 12:35:57;;;;;;;5.95;4.32;;;14.20;99.90;;;;;;5080092;28;20173;-70
2022/09/14 12:38:28;;;;;;;6.90;3.47;;;14.30;99.90;;;;;;5096687;28;20185;-70
2022/09/14 12:41:13;;;;;;;10.50;3.88;;;14.30;99.90;;;;;;5096754;28;20189;-70
2022/09/14 12:43:48;;;;;;;8.65;3.47;;;14.40;99.90;;;;;;5097222;28;20180;-70
2022/09/14 12:46:20;;;;;;;3.88;3.10;;;14.40;99.90;;;;;;5095565;28;20177;-70
2022/09/14 12:48:46;;;;;;;5.82;3.33;;;14.50;99.90;;;;;;5096553;28;20250;-70
2022/09/14 12:51:34;;;;;;;5.60;3.35;;;14.50;99.90;;;;;;5095210;28;20197;-71
2022/09/14 12:54:02;;;;;;;4.95;3.38;;;14.60;99.90;;;;;;5096846;28;20510;-70
2022/09/14 12:56:39;;;;;;;6.97;3.80;;;14.60;99.90;;;;;;5096827;28;20169;-70
2022/09/14 12:59:07;;;;;;;8.48;3.67;;;14.70;99.90;;;;;;5077019;28;20201;-70
2022/09/14 13:01:35;;;;;;;7.10;3.53;;;14.70;99.90;;;;;;5076058;28;20170;-70
2022/09/14 13:04:02;;;;;;;6.00;3.83;;;14.70;99.90;;;;;;5076369;28;20184;-70
2022/09/14 13:06:38;;;;;;;4.05;3.60;;;14.70;99.90;;;;;;5084660;28;20207;-71
2022/09/14 13:09:10;;;;;;;5.18;3.97;;;14.70;99.90;;;;;;5096983;28;20283;-70